sensor_id;sensor_type;location;lat;lon;timestamp;temperature;humidity
827;DHT22;395;48.132;11.608;2023-01-10T00:00:45;7.00;2.30
827;DHT22;395;48.132;11.608;2023-01-10T00:03:11;6.90;2.20
827;DHT22;395;48.132;11.608;2023-01-10T00:05:38;6.90;2.20
827;DHT22;395;48.132;11.608;2023-01-10T00:08:05;6.90;2.20
827;DHT22;395;48.132;11.608;2023-01-10T00:10:32;6.90;2.30
827;DHT22;395;48.132;11.608;2023-01-10T00:12:58;7.00;2.30
827;DHT22;395;48.132;11.608;2023-01-10T00:15:42;7.00;2.30
827;DHT22;395;48.132;11.608;2023-01-10T00:18:08;7.00;1.80
827;DHT22;395;48.132;11.608;2023-01-10T00:20:34;7.00;1.30
827;DHT22;395;48.132;11.608;2023-01-10T00:23:00;7.00;1.00
827;DHT22;395;48.132;11.608;2023-01-10T00:25:25;7.00;1.50
827;DHT22;395;48.132;11.608;2023-01-10T00:27:54;6.90;2.10
827;DHT22;395;48.132;11.608;2023-01-10T00:30:39;7.00;1.50
827;DHT22;395;48.132;11.608;2023-01-10T00:33:05;7.00;1.00
827;DHT22;395;48.132;11.608;2023-01-10T00:35:32;7.10;1.00
827;DHT22;395;48.132;11.608;2023-01-10T00:37:58;7.10;1.00
827;DHT22;395;48.132;11.608;2023-01-10T00:40:30;7.10;1.00
827;DHT22;395;48.132;11.608;2023-01-10T00:42:56;7.00;1.30
827;DHT22;395;48.132;11.608;2023-01-10T00:45:42;7.00;1.50
827;DHT22;395;48.132;11.608;2023-01-10T00:48:08;7.10;1.60
827;DHT22;395;48.132;11.608;2023-01-10T00:50:34;7.20;1.50
827;DHT22;395;48.132;11.608;2023-01-10T00:52:59;7.20;1.50
827;DHT22;395;48.132;11.608;2023-01-10T00:55:25;7.20;1.00
827;DHT22;395;48.132;11.608;2023-01-10T00:57:51;7.20;1.10
827;DHT22;395;48.132;11.608;2023-01-10T01:00:16;7.20;1.00
827;DHT22;395;48.132;11.608;2023-01-10T01:02:42;7.20;1.00
827;DHT22;395;48.132;11.608;2023-01-10T01:05:08;7.20;1.00
827;DHT22;395;48.132;11.608;2023-01-10T01:07:34;7.20;1.00
827;DHT22;395;48.132;11.608;2023-01-10T01:09:59;7.10;1.00
827;DHT22;395;48.132;11.608;2023-01-10T01:12:43;7.20;1.00
827;DHT22;395;48.132;11.608;2023-01-10T01:15:09;7.20;1.00
827;DHT22;395;48.132;11.608;2023-01-10T01:17:35;7.30;1.00
827;DHT22;395;48.132;11.608;2023-01-10T01:20:00;7.30;1.00
827;DHT22;395;48.132;11.608;2023-01-10T01:22:26;7.20;1.00
827;DHT22;395;48.132;11.608;2023-01-10T01:24:51;6.70;1.00
827;DHT22;395;48.132;11.608;2023-01-10T01:27:17;7.20;1.00
827;DHT22;395;48.132;11.608;2023-01-10T01:29:43;7.10;2.20
827;DHT22;395;48.132;11.608;2023-01-10T01:32:08;7.10;2.00
827;DHT22;395;48.132;11.608;2023-01-10T01:34:34;7.10;2.40
827;DHT22;395;48.132;11.608;2023-01-10T01:37:00;7.20;2.10
827;DHT22;395;48.132;11.608;2023-01-10T01:39:25;7.30;1.90
827;DHT22;395;48.132;11.608;2023-01-10T01:41:51;7.20;1.30
827;DHT22;395;48.132;11.608;2023-01-10T01:44:23;7.30;1.70
827;DHT22;395;48.132;11.608;2023-01-10T01:49:26;7.30;1.30
827;DHT22;395;48.132;11.608;2023-01-10T01:51:58;7.20;1.00
827;DHT22;395;48.132;11.608;2023-01-10T01:54:27;7.20;1.00
827;DHT22;395;48.132;11.608;2023-01-10T01:57:01;7.30;1.00
827;DHT22;395;48.132;11.608;2023-01-10T01:59:36;7.30;1.00
827;DHT22;395;48.132;11.608;2023-01-10T02:02:16;7.30;1.00
827;DHT22;395;48.132;11.608;2023-01-10T02:04:55;7.30;1.00
827;DHT22;395;48.132;11.608;2023-01-10T02:07:23;7.30;1.00
827;DHT22;395;48.132;11.608;2023-01-10T02:09:58;7.30;1.00
827;DHT22;395;48.132;11.608;2023-01-10T02:12:28;7.30;1.00
827;DHT22;395;48.132;11.608;2023-01-10T02:14:55;7.30;1.00
827;DHT22;395;48.132;11.608;2023-01-10T02:17:21;7.20;1.00
827;DHT22;395;48.132;11.608;2023-01-10T02:27:42;7.20;1.00
827;DHT22;395;48.132;11.608;2023-01-10T02:38:32;7.30;1.00
827;DHT22;395;48.132;11.608;2023-01-10T02:44:05;7.20;1.00
827;DHT22;395;48.132;11.608;2023-01-10T02:46:33;7.20;1.00
827;DHT22;395;48.132;11.608;2023-01-10T02:48:59;7.10;1.00
827;DHT22;395;48.132;11.608;2023-01-10T02:51:28;7.00;1.00
827;DHT22;395;48.132;11.608;2023-01-10T02:54:14;7.10;1.00
827;DHT22;395;48.132;11.608;2023-01-10T02:59:40;7.00;1.00
827;DHT22;395;48.132;11.608;2023-01-10T03:10:27;6.90;1.00
827;DHT22;395;48.132;11.608;2023-01-10T03:13:03;6.90;1.00
827;DHT22;395;48.132;11.608;2023-01-10T03:15:33;6.90;1.00
827;DHT22;395;48.132;11.608;2023-01-10T03:18:02;6.80;1.00
827;DHT22;395;48.132;11.608;2023-01-10T03:20:31;6.80;1.00
827;DHT22;395;48.132;11.608;2023-01-10T03:23:00;6.90;1.00
827;DHT22;395;48.132;11.608;2023-01-10T03:25:31;6.90;1.00
827;DHT22;395;48.132;11.608;2023-01-10T03:28:55;6.80;1.00
827;DHT22;395;48.132;11.608;2023-01-10T03:31:10;6.80;1.00
827;DHT22;395;48.132;11.608;2023-01-10T03:33:37;6.80;1.00
827;DHT22;395;48.132;11.608;2023-01-10T03:36:27;6.90;1.00
827;DHT22;395;48.132;11.608;2023-01-10T03:39:24;6.90;1.00
827;DHT22;395;48.132;11.608;2023-01-10T03:42:18;6.90;1.00
827;DHT22;395;48.132;11.608;2023-01-10T03:45:05;6.90;1.00
827;DHT22;395;48.132;11.608;2023-01-10T03:47:39;7.00;1.00
827;DHT22;395;48.132;11.608;2023-01-10T03:50:16;7.00;1.00
827;DHT22;395;48.132;11.608;2023-01-10T03:52:43;6.90;1.00
827;DHT22;395;48.132;11.608;2023-01-10T03:55:11;7.00;1.00
827;DHT22;395;48.132;11.608;2023-01-10T03:57:41;7.00;1.00
827;DHT22;395;48.132;11.608;2023-01-10T04:00:07;7.00;1.00
827;DHT22;395;48.132;11.608;2023-01-10T04:02:33;7.00;1.00
827;DHT22;395;48.132;11.608;2023-01-10T04:04:59;7.00;1.00
827;DHT22;395;48.132;11.608;2023-01-10T04:07:25;7.00;1.00
827;DHT22;395;48.132;11.608;2023-01-10T04:09:51;6.90;1.00
827;DHT22;395;48.132;11.608;2023-01-10T04:12:16;6.90;1.00
827;DHT22;395;48.132;11.608;2023-01-10T04:14:43;6.90;1.00
827;DHT22;395;48.132;11.608;2023-01-10T04:17:13;6.90;1.00
827;DHT22;395;48.132;11.608;2023-01-10T04:19:39;6.90;1.00
827;DHT22;395;48.132;11.608;2023-01-10T04:22:04;6.80;1.00
827;DHT22;395;48.132;11.608;2023-01-10T04:24:31;6.80;1.00
827;DHT22;395;48.132;11.608;2023-01-10T04:26:56;6.90;1.00
827;DHT22;395;48.132;11.608;2023-01-10T04:29:22;6.90;1.00
827;DHT22;395;48.132;11.608;2023-01-10T04:31:48;6.90;1.00
827;DHT22;395;48.132;11.608;2023-01-10T04:34:14;6.90;1.00
827;DHT22;395;48.132;11.608;2023-01-10T04:36:40;6.90;1.00
827;DHT22;395;48.132;11.608;2023-01-10T04:39:06;6.80;1.00
827;DHT22;395;48.132;11.608;2023-01-10T04:41:32;6.90;1.00
827;DHT22;395;48.132;11.608;2023-01-10T04:43:58;6.80;1.00
827;DHT22;395;48.132;11.608;2023-01-10T04:46:24;6.80;1.00
827;DHT22;395;48.132;11.608;2023-01-10T04:48:50;6.80;1.00
827;DHT22;395;48.132;11.608;2023-01-10T04:51:15;6.80;1.00
827;DHT22;395;48.132;11.608;2023-01-10T04:53:41;6.70;2.10
827;DHT22;395;48.132;11.608;2023-01-10T04:56:09;6.80;2.20
827;DHT22;395;48.132;11.608;2023-01-10T04:58:39;6.80;2.70
827;DHT22;395;48.132;11.608;2023-01-10T05:01:14;6.80;2.60
827;DHT22;395;48.132;11.608;2023-01-10T05:03:40;6.90;2.30
827;DHT22;395;48.132;11.608;2023-01-10T05:06:06;7.00;2.30
827;DHT22;395;48.132;11.608;2023-01-10T05:08:32;6.90;2.30
827;DHT22;395;48.132;11.608;2023-01-10T05:10:58;6.90;2.90
827;DHT22;395;48.132;11.608;2023-01-10T05:13:24;6.90;3.50
827;DHT22;395;48.132;11.608;2023-01-10T05:15:54;6.80;3.80
827;DHT22;395;48.132;11.608;2023-01-10T05:18:21;6.80;4.10
827;DHT22;395;48.132;11.608;2023-01-10T05:20:46;6.80;4.50
827;DHT22;395;48.132;11.608;2023-01-10T05:23:12;6.80;4.70
827;DHT22;395;48.132;11.608;2023-01-10T05:25:38;6.70;4.80
827;DHT22;395;48.132;11.608;2023-01-10T05:28:03;6.70;5.30
827;DHT22;395;48.132;11.608;2023-01-10T05:30:29;6.70;6.30
827;DHT22;395;48.132;11.608;2023-01-10T05:32:55;6.70;5.90
827;DHT22;395;48.132;11.608;2023-01-10T05:35:20;6.70;5.90
827;DHT22;395;48.132;11.608;2023-01-10T05:37:46;6.60;6.30
827;DHT22;395;48.132;11.608;2023-01-10T05:40:12;6.70;6.20
827;DHT22;395;48.132;11.608;2023-01-10T05:42:37;6.70;6.30
827;DHT22;395;48.132;11.608;2023-01-10T05:45:04;6.70;6.20
827;DHT22;395;48.132;11.608;2023-01-10T05:47:29;6.70;6.30
827;DHT22;395;48.132;11.608;2023-01-10T05:49:55;6.70;6.20
827;DHT22;395;48.132;11.608;2023-01-10T05:52:21;6.70;6.20
827;DHT22;395;48.132;11.608;2023-01-10T05:54:46;6.70;5.90
827;DHT22;395;48.132;11.608;2023-01-10T05:57:12;6.70;5.90
827;DHT22;395;48.132;11.608;2023-01-10T05:59:38;6.70;5.90
827;DHT22;395;48.132;11.608;2023-01-10T06:02:03;6.60;6.10
827;DHT22;395;48.132;11.608;2023-01-10T06:04:29;6.60;6.20
827;DHT22;395;48.132;11.608;2023-01-10T06:06:55;6.60;5.80
827;DHT22;395;48.132;11.608;2023-01-10T06:09:20;6.60;5.90
827;DHT22;395;48.132;11.608;2023-01-10T06:11:46;6.60;5.70
827;DHT22;395;48.132;11.608;2023-01-10T06:14:11;6.60;5.70
827;DHT22;395;48.132;11.608;2023-01-10T06:16:37;6.60;5.80
827;DHT22;395;48.132;11.608;2023-01-10T06:19:03;6.60;5.60
827;DHT22;395;48.132;11.608;2023-01-10T06:21:29;6.70;5.60
827;DHT22;395;48.132;11.608;2023-01-10T06:23:54;6.70;5.10
827;DHT22;395;48.132;11.608;2023-01-10T06:26:20;6.60;4.50
827;DHT22;395;48.132;11.608;2023-01-10T06:28:45;6.60;4.60
827;DHT22;395;48.132;11.608;2023-01-10T06:31:11;6.50;4.40
827;DHT22;395;48.132;11.608;2023-01-10T06:33:39;6.50;4.80
827;DHT22;395;48.132;11.608;2023-01-10T06:36:06;6.40;5.30
827;DHT22;395;48.132;11.608;2023-01-10T06:38:31;6.50;5.50
827;DHT22;395;48.132;11.608;2023-01-10T06:40:57;6.60;5.80
827;DHT22;395;48.132;11.608;2023-01-10T06:43:23;6.60;4.90
827;DHT22;395;48.132;11.608;2023-01-10T06:45:49;6.60;4.70
827;DHT22;395;48.132;11.608;2023-01-10T06:48:14;6.60;4.30
827;DHT22;395;48.132;11.608;2023-01-10T06:50:40;6.60;4.50
827;DHT22;395;48.132;11.608;2023-01-10T06:53:06;6.50;4.50
827;DHT22;395;48.132;11.608;2023-01-10T06:55:31;6.50;4.60
827;DHT22;395;48.132;11.608;2023-01-10T06:58:01;6.50;4.80
827;DHT22;395;48.132;11.608;2023-01-10T07:00:29;6.40;5.30
827;DHT22;395;48.132;11.608;2023-01-10T07:02:59;6.40;5.90
827;DHT22;395;48.132;11.608;2023-01-10T07:05:25;6.40;6.70
827;DHT22;395;48.132;11.608;2023-01-10T07:07:51;6.40;6.30
827;DHT22;395;48.132;11.608;2023-01-10T07:10:17;6.30;6.10
827;DHT22;395;48.132;11.608;2023-01-10T07:12:42;6.40;6.40
827;DHT22;395;48.132;11.608;2023-01-10T07:15:08;6.30;6.30
827;DHT22;395;48.132;11.608;2023-01-10T07:17:34;6.40;6.60
827;DHT22;395;48.132;11.608;2023-01-10T07:20:00;6.40;6.60
827;DHT22;395;48.132;11.608;2023-01-10T07:22:25;6.30;5.60
827;DHT22;395;48.132;11.608;2023-01-10T07:24:51;6.30;6.00
827;DHT22;395;48.132;11.608;2023-01-10T07:27:18;6.30;6.00
827;DHT22;395;48.132;11.608;2023-01-10T07:29:44;6.30;6.20
827;DHT22;395;48.132;11.608;2023-01-10T07:32:10;6.30;6.40
827;DHT22;395;48.132;11.608;2023-01-10T07:34:35;6.30;5.60
827;DHT22;395;48.132;11.608;2023-01-10T07:37:01;6.30;5.60
827;DHT22;395;48.132;11.608;2023-01-10T07:39:27;6.30;5.90
827;DHT22;395;48.132;11.608;2023-01-10T07:41:52;6.30;5.40
827;DHT22;395;48.132;11.608;2023-01-10T07:44:19;6.20;5.60
827;DHT22;395;48.132;11.608;2023-01-10T07:46:45;6.20;6.20
827;DHT22;395;48.132;11.608;2023-01-10T07:49:10;6.30;6.50
827;DHT22;395;48.132;11.608;2023-01-10T07:51:38;6.30;6.50
827;DHT22;395;48.132;11.608;2023-01-10T07:54:04;6.40;6.30
827;DHT22;395;48.132;11.608;2023-01-10T07:56:30;6.30;6.10
827;DHT22;395;48.132;11.608;2023-01-10T07:58:56;6.40;6.60
827;DHT22;395;48.132;11.608;2023-01-10T08:01:22;6.40;6.90
827;DHT22;395;48.132;11.608;2023-01-10T08:03:49;6.50;6.00
827;DHT22;395;48.132;11.608;2023-01-10T08:06:14;6.50;5.40
827;DHT22;395;48.132;11.608;2023-01-10T08:08:40;6.40;5.40
827;DHT22;395;48.132;11.608;2023-01-10T08:11:06;6.40;5.00
827;DHT22;395;48.132;11.608;2023-01-10T08:13:31;6.30;5.90
827;DHT22;395;48.132;11.608;2023-01-10T08:15:57;6.40;5.70
827;DHT22;395;48.132;11.608;2023-01-10T08:18:25;6.40;5.40
827;DHT22;395;48.132;11.608;2023-01-10T08:20:52;6.40;5.70
827;DHT22;395;48.132;11.608;2023-01-10T08:23:19;6.50;5.80
827;DHT22;395;48.132;11.608;2023-01-10T08:25:46;6.40;5.20
827;DHT22;395;48.132;11.608;2023-01-10T08:28:12;6.40;4.80
827;DHT22;395;48.132;11.608;2023-01-10T08:30:38;6.40;5.00
827;DHT22;395;48.132;11.608;2023-01-10T08:33:05;6.40;5.60
827;DHT22;395;48.132;11.608;2023-01-10T08:35:38;6.50;5.50
827;DHT22;395;48.132;11.608;2023-01-10T08:38:05;6.50;5.30
827;DHT22;395;48.132;11.608;2023-01-10T08:40:31;6.60;5.30
827;DHT22;395;48.132;11.608;2023-01-10T08:42:58;6.70;5.60
827;DHT22;395;48.132;11.608;2023-01-10T08:45:24;6.70;5.50
827;DHT22;395;48.132;11.608;2023-01-10T08:47:50;6.60;4.90
827;DHT22;395;48.132;11.608;2023-01-10T08:50:15;6.50;4.70
827;DHT22;395;48.132;11.608;2023-01-10T08:52:41;6.50;5.10
827;DHT22;395;48.132;11.608;2023-01-10T08:55:07;6.40;4.90
827;DHT22;395;48.132;11.608;2023-01-10T08:57:33;6.50;4.90
827;DHT22;395;48.132;11.608;2023-01-10T08:59:58;6.50;4.90
827;DHT22;395;48.132;11.608;2023-01-10T09:02:24;6.50;4.30
827;DHT22;395;48.132;11.608;2023-01-10T09:04:50;6.50;4.30
827;DHT22;395;48.132;11.608;2023-01-10T09:07:15;6.50;4.50
827;DHT22;395;48.132;11.608;2023-01-10T09:09:41;6.60;4.30
827;DHT22;395;48.132;11.608;2023-01-10T09:12:06;6.50;4.30
827;DHT22;395;48.132;11.608;2023-01-10T09:14:52;6.60;4.50
827;DHT22;395;48.132;11.608;2023-01-10T09:17:18;6.50;4.30
827;DHT22;395;48.132;11.608;2023-01-10T09:19:43;6.50;4.40
827;DHT22;395;48.132;11.608;2023-01-10T09:22:09;6.30;4.00
827;DHT22;395;48.132;11.608;2023-01-10T09:24:35;6.20;5.60
827;DHT22;395;48.132;11.608;2023-01-10T09:27:02;6.30;5.00
827;DHT22;395;48.132;11.608;2023-01-10T09:29:27;6.10;5.10
827;DHT22;395;48.132;11.608;2023-01-10T09:31:53;6.00;5.40
827;DHT22;395;48.132;11.608;2023-01-10T09:34:18;6.10;6.10
827;DHT22;395;48.132;11.608;2023-01-10T09:36:44;6.10;6.30
827;DHT22;395;48.132;11.608;2023-01-10T09:39:10;6.20;6.30
827;DHT22;395;48.132;11.608;2023-01-10T09:44:17;6.40;6.30
827;DHT22;395;48.132;11.608;2023-01-10T09:52:23;6.60;5.90
827;DHT22;395;48.132;11.608;2023-01-10T09:54:51;6.60;5.80
827;DHT22;395;48.132;11.608;2023-01-10T09:57:19;6.60;6.20
827;DHT22;395;48.132;11.608;2023-01-10T09:59:46;6.60;6.20
827;DHT22;395;48.132;11.608;2023-01-10T10:02:27;6.60;6.20
827;DHT22;395;48.132;11.608;2023-01-10T10:07:37;6.60;6.20
827;DHT22;395;48.132;11.608;2023-01-10T10:10:11;6.70;6.10
827;DHT22;395;48.132;11.608;2023-01-10T10:35:39;6.50;1.00
827;DHT22;395;48.132;11.608;2023-01-10T10:38:28;6.60;1.00
827;DHT22;395;48.132;11.608;2023-01-10T10:40:57;6.60;1.00
827;DHT22;395;48.132;11.608;2023-01-10T10:43:29;6.70;1.00
827;DHT22;395;48.132;11.608;2023-01-10T10:46:08;6.80;1.00
827;DHT22;395;48.132;11.608;2023-01-10T10:51:24;6.90;1.00
827;DHT22;395;48.132;11.608;2023-01-10T10:53:51;6.90;1.00
827;DHT22;395;48.132;11.608;2023-01-10T10:56:21;6.90;1.00
827;DHT22;395;48.132;11.608;2023-01-10T10:58:50;6.80;1.00
827;DHT22;395;48.132;11.608;2023-01-10T11:01:18;6.80;1.00
827;DHT22;395;48.132;11.608;2023-01-10T11:03:48;6.80;1.00
827;DHT22;395;48.132;11.608;2023-01-10T11:06:16;6.80;1.00
827;DHT22;395;48.132;11.608;2023-01-10T11:08:45;6.80;1.00
827;DHT22;395;48.132;11.608;2023-01-10T11:11:53;6.80;1.00
827;DHT22;395;48.132;11.608;2023-01-10T11:14:12;6.80;1.00
827;DHT22;395;48.132;11.608;2023-01-10T11:16:40;6.90;1.00
827;DHT22;395;48.132;11.608;2023-01-10T11:21:47;6.90;1.00
827;DHT22;395;48.132;11.608;2023-01-10T11:24:48;6.90;1.00
827;DHT22;395;48.132;11.608;2023-01-10T11:27:18;6.90;1.00
827;DHT22;395;48.132;11.608;2023-01-10T11:29:48;6.80;1.00
827;DHT22;395;48.132;11.608;2023-01-10T11:32:21;6.80;1.00
827;DHT22;395;48.132;11.608;2023-01-10T11:35:03;6.80;1.00
827;DHT22;395;48.132;11.608;2023-01-10T11:37:33;6.70;1.00
827;DHT22;395;48.132;11.608;2023-01-10T11:40:25;6.70;1.00
827;DHT22;395;48.132;11.608;2023-01-10T11:42:53;6.20;1.00
827;DHT22;395;48.132;11.608;2023-01-10T11:48:06;6.90;1.00
827;DHT22;395;48.132;11.608;2023-01-10T11:50:36;6.90;1.00
827;DHT22;395;48.132;11.608;2023-01-10T11:53:04;6.90;1.00
827;DHT22;395;48.132;11.608;2023-01-10T11:55:32;7.00;1.00
827;DHT22;395;48.132;11.608;2023-01-10T11:58:09;6.90;1.00
827;DHT22;395;48.132;11.608;2023-01-10T12:00:44;6.80;1.00
827;DHT22;395;48.132;11.608;2023-01-10T12:03:20;6.90;1.00
827;DHT22;395;48.132;11.608;2023-01-10T12:05:58;6.80;1.00
827;DHT22;395;48.132;11.608;2023-01-10T12:08:30;6.80;1.00
827;DHT22;395;48.132;11.608;2023-01-10T12:13:27;6.80;1.00
827;DHT22;395;48.132;11.608;2023-01-10T12:16:16;6.60;1.00
827;DHT22;395;48.132;11.608;2023-01-10T12:18:43;6.70;1.00
827;DHT22;395;48.132;11.608;2023-01-10T12:21:13;6.70;1.00
827;DHT22;395;48.132;11.608;2023-01-10T12:23:41;6.70;1.00
827;DHT22;395;48.132;11.608;2023-01-10T12:26:10;6.80;1.00
827;DHT22;395;48.132;11.608;2023-01-10T12:28:43;6.70;1.00
827;DHT22;395;48.132;11.608;2023-01-10T12:31:13;6.90;1.00
827;DHT22;395;48.132;11.608;2023-01-10T12:33:45;7.00;1.00
827;DHT22;395;48.132;11.608;2023-01-10T12:41:42;7.10;1.00
827;DHT22;395;48.132;11.608;2023-01-10T12:44:44;7.10;1.00
827;DHT22;395;48.132;11.608;2023-01-10T12:50:23;7.10;1.00
827;DHT22;395;48.132;11.608;2023-01-10T12:55:38;7.10;1.00
827;DHT22;395;48.132;11.608;2023-01-10T12:58:08;7.20;1.00
827;DHT22;395;48.132;11.608;2023-01-10T13:00:40;7.20;1.00
827;DHT22;395;48.132;11.608;2023-01-10T13:03:13;7.10;1.00
827;DHT22;395;48.132;11.608;2023-01-10T13:05:40;7.10;1.00
827;DHT22;395;48.132;11.608;2023-01-10T13:08:09;7.00;1.00
827;DHT22;395;48.132;11.608;2023-01-10T13:10:41;7.20;1.00
827;DHT22;395;48.132;11.608;2023-01-10T13:13:33;7.10;1.00
827;DHT22;395;48.132;11.608;2023-01-10T13:21:35;7.20;1.00
827;DHT22;395;48.132;11.608;2023-01-10T13:24:23;7.20;1.00
827;DHT22;395;48.132;11.608;2023-01-10T13:26:56;7.20;1.00
827;DHT22;395;48.132;11.608;2023-01-10T13:29:28;7.30;1.00
827;DHT22;395;48.132;11.608;2023-01-10T13:31:57;7.30;1.00
827;DHT22;395;48.132;11.608;2023-01-10T13:34:32;7.40;1.00
827;DHT22;395;48.132;11.608;2023-01-10T13:37:11;7.50;1.00
827;DHT22;395;48.132;11.608;2023-01-10T13:39:40;7.40;1.00
827;DHT22;395;48.132;11.608;2023-01-10T13:42:21;7.40;1.00
827;DHT22;395;48.132;11.608;2023-01-10T14:00:50;7.40;1.00
827;DHT22;395;48.132;11.608;2023-01-10T14:03:45;7.40;1.00
827;DHT22;395;48.132;11.608;2023-01-10T14:06:35;7.50;1.00
827;DHT22;395;48.132;11.608;2023-01-10T14:14:31;7.40;1.00
827;DHT22;395;48.132;11.608;2023-01-10T14:17:13;7.40;1.00
827;DHT22;395;48.132;11.608;2023-01-10T14:19:42;7.40;1.00
827;DHT22;395;48.132;11.608;2023-01-10T14:22:23;7.40;1.00
827;DHT22;395;48.132;11.608;2023-01-10T14:24:51;7.40;1.00
827;DHT22;395;48.132;11.608;2023-01-10T14:27:18;7.30;1.00
827;DHT22;395;48.132;11.608;2023-01-10T14:29:56;7.40;1.00
827;DHT22;395;48.132;11.608;2023-01-10T14:32:36;7.40;1.00
827;DHT22;395;48.132;11.608;2023-01-10T14:35:08;7.40;1.00
827;DHT22;395;48.132;11.608;2023-01-10T14:37:44;7.50;1.00
827;DHT22;395;48.132;11.608;2023-01-10T14:40:34;7.60;1.00
827;DHT22;395;48.132;11.608;2023-01-10T14:43:07;7.60;1.00
827;DHT22;395;48.132;11.608;2023-01-10T14:45:50;7.70;1.00
827;DHT22;395;48.132;11.608;2023-01-10T14:48:28;7.70;1.00
827;DHT22;395;48.132;11.608;2023-01-10T14:51:22;7.70;1.00
827;DHT22;395;48.132;11.608;2023-01-10T14:54:02;7.60;1.00
827;DHT22;395;48.132;11.608;2023-01-10T14:56:35;7.70;1.00
827;DHT22;395;48.132;11.608;2023-01-10T14:59:28;7.70;1.00
827;DHT22;395;48.132;11.608;2023-01-10T15:01:56;7.80;1.00
827;DHT22;395;48.132;11.608;2023-01-10T15:04:26;7.60;1.00
827;DHT22;395;48.132;11.608;2023-01-10T15:06:58;7.70;1.00
827;DHT22;395;48.132;11.608;2023-01-10T15:09:28;7.50;1.00
827;DHT22;395;48.132;11.608;2023-01-10T15:11:55;7.50;1.00
827;DHT22;395;48.132;11.608;2023-01-10T15:14:23;7.60;1.00
827;DHT22;395;48.132;11.608;2023-01-10T15:16:54;7.60;1.00
827;DHT22;395;48.132;11.608;2023-01-10T15:19:22;7.60;1.00
827;DHT22;395;48.132;11.608;2023-01-10T15:21:48;7.60;1.00
827;DHT22;395;48.132;11.608;2023-01-10T15:24:32;7.70;1.00
827;DHT22;395;48.132;11.608;2023-01-10T15:27:06;7.60;1.00
827;DHT22;395;48.132;11.608;2023-01-10T15:29:38;7.70;1.00
827;DHT22;395;48.132;11.608;2023-01-10T15:32:11;7.70;1.00
827;DHT22;395;48.132;11.608;2023-01-10T15:34:39;7.70;1.00
827;DHT22;395;48.132;11.608;2023-01-10T15:37:15;7.60;1.00
827;DHT22;395;48.132;11.608;2023-01-10T15:39:45;7.60;1.00
827;DHT22;395;48.132;11.608;2023-01-10T15:42:12;7.60;1.00
827;DHT22;395;48.132;11.608;2023-01-10T15:44:42;7.60;1.00
827;DHT22;395;48.132;11.608;2023-01-10T15:47:39;7.70;1.00
827;DHT22;395;48.132;11.608;2023-01-10T15:52:53;7.70;1.00
827;DHT22;395;48.132;11.608;2023-01-10T16:00:53;7.60;1.00
827;DHT22;395;48.132;11.608;2023-01-10T16:03:27;7.50;1.00
827;DHT22;395;48.132;11.608;2023-01-10T16:05:56;7.60;1.00
827;DHT22;395;48.132;11.608;2023-01-10T16:08:29;7.60;1.00
827;DHT22;395;48.132;11.608;2023-01-10T16:10:57;7.60;1.00
827;DHT22;395;48.132;11.608;2023-01-10T16:13:24;7.50;1.00
827;DHT22;395;48.132;11.608;2023-01-10T16:15:54;7.60;1.00
827;DHT22;395;48.132;11.608;2023-01-10T16:18:19;7.60;1.00
827;DHT22;395;48.132;11.608;2023-01-10T16:20:46;7.60;1.00
827;DHT22;395;48.132;11.608;2023-01-10T16:23:21;7.60;1.00
827;DHT22;395;48.132;11.608;2023-01-10T16:25:50;7.60;1.00
827;DHT22;395;48.132;11.608;2023-01-10T16:28:18;7.50;1.00
827;DHT22;395;48.132;11.608;2023-01-10T16:30:44;7.50;1.00
827;DHT22;395;48.132;11.608;2023-01-10T16:33:23;7.60;1.00
827;DHT22;395;48.132;11.608;2023-01-10T16:35:52;7.50;1.00
827;DHT22;395;48.132;11.608;2023-01-10T16:38:19;7.50;1.00
827;DHT22;395;48.132;11.608;2023-01-10T16:40:56;7.80;1.00
827;DHT22;395;48.132;11.608;2023-01-10T16:43:23;7.50;1.00
827;DHT22;395;48.132;11.608;2023-01-10T16:45:53;7.50;1.00
827;DHT22;395;48.132;11.608;2023-01-10T16:48:25;7.50;1.00
827;DHT22;395;48.132;11.608;2023-01-10T16:50:51;7.50;1.00
827;DHT22;395;48.132;11.608;2023-01-10T16:53:18;7.50;1.00
827;DHT22;395;48.132;11.608;2023-01-10T16:55:46;7.50;1.00
827;DHT22;395;48.132;11.608;2023-01-10T16:58:13;7.50;1.00
827;DHT22;395;48.132;11.608;2023-01-10T17:00:41;7.50;1.00
827;DHT22;395;48.132;11.608;2023-01-10T17:03:19;7.50;1.00
827;DHT22;395;48.132;11.608;2023-01-10T17:05:45;7.50;1.00
827;DHT22;395;48.132;11.608;2023-01-10T17:08:22;7.40;1.00
827;DHT22;395;48.132;11.608;2023-01-10T17:10:51;7.40;1.00
827;DHT22;395;48.132;11.608;2023-01-10T17:13:23;7.40;1.00
827;DHT22;395;48.132;11.608;2023-01-10T17:15:49;7.40;1.00
827;DHT22;395;48.132;11.608;2023-01-10T17:18:15;7.30;1.00
827;DHT22;395;48.132;11.608;2023-01-10T17:20:40;7.30;1.00
827;DHT22;395;48.132;11.608;2023-01-10T17:23:06;7.30;1.00
827;DHT22;395;48.132;11.608;2023-01-10T17:25:34;7.20;1.00
827;DHT22;395;48.132;11.608;2023-01-10T17:28:00;7.20;1.00
827;DHT22;395;48.132;11.608;2023-01-10T17:30:25;7.20;1.00
827;DHT22;395;48.132;11.608;2023-01-10T17:32:51;7.20;1.00
827;DHT22;395;48.132;11.608;2023-01-10T17:35:17;7.10;1.00
827;DHT22;395;48.132;11.608;2023-01-10T17:37:43;7.10;1.00
827;DHT22;395;48.132;11.608;2023-01-10T17:40:09;7.10;1.00
827;DHT22;395;48.132;11.608;2023-01-10T17:42:36;7.10;1.00
827;DHT22;395;48.132;11.608;2023-01-10T17:45:02;7.10;1.00
827;DHT22;395;48.132;11.608;2023-01-10T17:47:28;7.10;1.00
827;DHT22;395;48.132;11.608;2023-01-10T17:49:53;7.10;1.00
827;DHT22;395;48.132;11.608;2023-01-10T17:52:19;7.00;1.00
827;DHT22;395;48.132;11.608;2023-01-10T17:54:45;7.00;1.00
827;DHT22;395;48.132;11.608;2023-01-10T17:57:10;7.00;1.00
827;DHT22;395;48.132;11.608;2023-01-10T17:59:36;7.00;1.00
827;DHT22;395;48.132;11.608;2023-01-10T18:02:02;6.90;1.00
827;DHT22;395;48.132;11.608;2023-01-10T18:04:28;7.00;1.00
827;DHT22;395;48.132;11.608;2023-01-10T18:06:54;6.90;1.00
827;DHT22;395;48.132;11.608;2023-01-10T18:09:19;6.90;1.00
827;DHT22;395;48.132;11.608;2023-01-10T18:11:45;6.90;1.00
827;DHT22;395;48.132;11.608;2023-01-10T18:14:11;6.40;1.00
827;DHT22;395;48.132;11.608;2023-01-10T18:16:55;6.80;1.00
827;DHT22;395;48.132;11.608;2023-01-10T18:19:21;6.80;1.00
827;DHT22;395;48.132;11.608;2023-01-10T18:21:47;6.80;1.00
827;DHT22;395;48.132;11.608;2023-01-10T18:24:13;6.70;1.00
827;DHT22;395;48.132;11.608;2023-01-10T18:26:39;6.80;1.00
827;DHT22;395;48.132;11.608;2023-01-10T18:29:04;6.80;1.00
827;DHT22;395;48.132;11.608;2023-01-10T18:31:30;6.70;1.00
827;DHT22;395;48.132;11.608;2023-01-10T18:33:56;6.70;1.00
827;DHT22;395;48.132;11.608;2023-01-10T18:36:22;6.60;1.00
827;DHT22;395;48.132;11.608;2023-01-10T18:38:49;6.60;1.00
827;DHT22;395;48.132;11.608;2023-01-10T18:41:16;6.60;1.00
827;DHT22;395;48.132;11.608;2023-01-10T18:43:43;6.60;1.00
827;DHT22;395;48.132;11.608;2023-01-10T18:46:12;6.60;1.00
827;DHT22;395;48.132;11.608;2023-01-10T18:48:38;6.50;1.00
827;DHT22;395;48.132;11.608;2023-01-10T18:51:05;6.50;1.00
827;DHT22;395;48.132;11.608;2023-01-10T18:53:31;6.50;1.00
827;DHT22;395;48.132;11.608;2023-01-10T18:56:01;6.50;1.00
827;DHT22;395;48.132;11.608;2023-01-10T18:58:34;6.50;1.00
827;DHT22;395;48.132;11.608;2023-01-10T19:01:14;6.40;1.00
827;DHT22;395;48.132;11.608;2023-01-10T19:03:40;6.40;1.00
827;DHT22;395;48.132;11.608;2023-01-10T19:06:07;6.40;1.00
827;DHT22;395;48.132;11.608;2023-01-10T19:08:38;6.40;1.00
827;DHT22;395;48.132;11.608;2023-01-10T19:11:05;6.40;1.00